sensor_id;sensor_type;location;lat;lon;timestamp;pressure;altitude;pressure_sealevel;temperature;humidity
4085;BME280;2057;50.858;6.572;2024-01-30T00:00:01;101506.50;;;6.24;100.00
4085;BME280;2057;50.858;6.572;2024-01-30T00:02:26;101507.38;;;6.25;100.00
4085;BME280;2057;50.858;6.572;2024-01-30T00:04:52;101509.03;;;6.24;100.00
4085;BME280;2057;50.858;6.572;2024-01-30T00:07:17;101506.41;;;6.23;100.00
4085;BME280;2057;50.858;6.572;2024-01-30T00:09:49;101505.88;;;6.17;100.00
4085;BME280;2057;50.858;6.572;2024-01-30T00:12:14;101503.59;;;6.09;100.00
4085;BME280;2057;50.858;6.572;2024-01-30T00:14:47;101495.28;;;6.10;100.00
4085;BME280;2057;50.858;6.572;2024-01-30T00:17:13;101493.88;;;6.04;100.00
4085;BME280;2057;50.858;6.572;2024-01-30T00:19:39;101498.38;;;5.97;100.00
4085;BME280;2057;50.858;6.572;2024-01-30T00:22:04;101495.41;;;6.02;100.00
4085;BME280;2057;50.858;6.572;2024-01-30T00:24:32;101489.47;;;6.01;100.00
4085;BME280;2057;50.858;6.572;2024-01-30T00:26:57;101495.78;;;6.06;100.00
4085;BME280;2057;50.858;6.572;2024-01-30T00:29:25;101491.88;;;6.00;100.00
4085;BME280;2057;50.858;6.572;2024-01-30T00:31:55;101491.44;;;5.95;100.00
4085;BME280;2057;50.858;6.572;2024-01-30T00:34:23;101489.69;;;5.94;100.00
4085;BME280;2057;50.858;6.572;2024-01-30T00:36:48;101484.25;;;5.89;100.00
4085;BME280;2057;50.858;6.572;2024-01-30T00:39:13;101485.66;;;5.96;100.00
4085;BME280;2057;50.858;6.572;2024-01-30T00:41:40;101482.03;;;6.03;100.00
4085;BME280;2057;50.858;6.572;2024-01-30T00:44:06;101479.13;;;5.98;100.00
4085;BME280;2057;50.858;6.572;2024-01-30T00:46:33;101480.28;;;6.02;100.00
4085;BME280;2057;50.858;6.572;2024-01-30T00:48:59;101480.28;;;6.02;100.00
4085;BME280;2057;50.858;6.572;2024-01-30T00:51:24;101483.00;;;5.94;100.00
4085;BME280;2057;50.858;6.572;2024-01-30T00:53:50;101477.06;;;5.94;100.00
4085;BME280;2057;50.858;6.572;2024-01-30T00:56:15;101479.13;;;5.98;100.00
4085;BME280;2057;50.858;6.572;2024-01-30T00:58:46;101477.34;;;5.97;100.00
4085;BME280;2057;50.858;6.572;2024-01-30T01:01:11;101483.41;;;5.99;100.00
4085;BME280;2057;50.858;6.572;2024-01-30T01:03:39;101486.53;;;5.96;100.00
4085;BME280;2057;50.858;6.572;2024-01-30T01:06:09;101480.34;;;5.93;100.00
4085;BME280;2057;50.858;6.572;2024-01-30T01:08:34;101480.72;;;5.87;100.00
4085;BME280;2057;50.858;6.572;2024-01-30T01:11:00;101470.91;;;5.90;100.00
4085;BME280;2057;50.858;6.572;2024-01-30T01:13:25;101472.16;;;5.95;100.00
4085;BME280;2057;50.858;6.572;2024-01-30T01:15:50;101470.25;;;5.82;100.00
4085;BME280;2057;50.858;6.572;2024-01-30T01:18:18;101475.94;;;5.90;100.00
4085;BME280;2057;50.858;6.572;2024-01-30T01:20:46;101481.97;;;5.82;100.00
4085;BME280;2057;50.858;6.572;2024-01-30T01:23:11;101478.72;;;5.83;100.00
4085;BME280;2057;50.858;6.572;2024-01-30T01:25:37;101481.97;;;5.82;100.00
4085;BME280;2057;50.858;6.572;2024-01-30T01:28:02;101483.97;;;5.86;100.00
4085;BME280;2057;50.858;6.572;2024-01-30T01:30:28;101481.34;;;5.85;100.00
4085;BME280;2057;50.858;6.572;2024-01-30T01:32:54;101478.72;;;5.83;100.00
4085;BME280;2057;50.858;6.572;2024-01-30T01:35:26;101476.41;;;5.86;100.00
4085;BME280;2057;50.858;6.572;2024-01-30T01:38:00;101476.81;;;5.91;100.00
4085;BME280;2057;50.858;6.572;2024-01-30T01:40:26;101478.19;;;5.87;100.00
4085;BME280;2057;50.858;6.572;2024-01-30T01:42:53;101472.72;;;6.02;100.00
4085;BME280;2057;50.858;6.572;2024-01-30T01:45:20;101470.97;;;6.01;100.00
4085;BME280;2057;50.858;6.572;2024-01-30T01:47:48;101475.25;;;6.02;100.00
4085;BME280;2057;50.858;6.572;2024-01-30T01:50:15;101476.44;;;5.96;100.00
4085;BME280;2057;50.858;6.572;2024-01-30T01:52:44;101471.41;;;5.96;100.00
4085;BME280;2057;50.858;6.572;2024-01-30T01:55:15;101478.38;;;5.99;100.00
4085;BME280;2057;50.858;6.572;2024-01-30T01:57:41;101475.63;;;6.06;100.00
4085;BME280;2057;50.858;6.572;2024-01-30T02:02:45;101474.47;;;6.03;100.00
4085;BME280;2057;50.858;6.572;2024-01-30T02:05:11;101480.28;;;6.02;100.00
4085;BME280;2057;50.858;6.572;2024-01-30T02:07:37;101468.66;;;6.04;100.00
4085;BME280;2057;50.858;6.572;2024-01-30T02:10:08;101473.31;;;5.99;100.00
4085;BME280;2057;50.858;6.572;2024-01-30T02:12:37;101463.41;;;6.01;100.00
4085;BME280;2057;50.858;6.572;2024-01-30T02:15:03;101460.13;;;6.02;100.00
4085;BME280;2057;50.858;6.572;2024-01-30T02:17:30;101467.16;;;6.06;100.00
4085;BME280;2057;50.858;6.572;2024-01-30T02:19:55;101462.66;;;6.02;100.00
4085;BME280;2057;50.858;6.572;2024-01-30T02:22:23;101458.84;;;6.07;100.00
4085;BME280;2057;50.858;6.572;2024-01-30T02:24:49;101456.22;;;6.05;100.00
4085;BME280;2057;50.858;6.572;2024-01-30T02:27:14;101450.03;;;6.02;100.00
4085;BME280;2057;50.858;6.572;2024-01-30T02:29:40;101446.38;;;6.08;100.00
4085;BME280;2057;50.858;6.572;2024-01-30T02:32:06;101446.75;;;6.13;100.00
4085;BME280;2057;50.858;6.572;2024-01-30T02:34:31;101449.25;;;6.13;100.00
4085;BME280;2057;50.858;6.572;2024-01-30T02:36:59;101439.69;;;6.09;100.00
4085;BME280;2057;50.858;6.572;2024-01-30T02:39:28;101442.22;;;6.09;100.00
4085;BME280;2057;50.858;6.572;2024-01-30T02:41:55;101439.69;;;6.09;100.00
4085;BME280;2057;50.858;6.572;2024-01-30T02:44:20;101442.22;;;6.09;100.00
4085;BME280;2057;50.858;6.572;2024-01-30T02:46:46;101438.81;;;6.08;100.00
4085;BME280;2057;50.858;6.572;2024-01-30T02:49:11;101438.69;;;6.07;100.00
4085;BME280;2057;50.858;6.572;2024-01-30T02:51:39;101434.41;;;6.06;100.00
4085;BME280;2057;50.858;6.572;2024-01-30T02:54:04;101434.91;;;6.02;100.00
4085;BME280;2057;50.858;6.572;2024-01-30T02:56:29;101438.03;;;5.99;100.00
4085;BME280;2057;50.858;6.572;2024-01-30T02:58:59;101433.16;;;6.01;100.00
4085;BME280;2057;50.858;6.572;2024-01-30T03:01:26;101428.72;;;5.98;100.00
4085;BME280;2057;50.858;6.572;2024-01-30T03:03:54;101439.66;;;5.99;100.00
4085;BME280;2057;50.858;6.572;2024-01-30T03:06:19;101436.53;;;6.01;100.00
4085;BME280;2057;50.858;6.572;2024-01-30T03:08:48;101428.84;;;6.00;100.00
4085;BME280;2057;50.858;6.572;2024-01-30T03:13:48;101430.00;;;6.03;100.00
4085;BME280;2057;50.858;6.572;2024-01-30T04:23:31;101416.88;;;6.28;100.00
4085;BME280;2057;50.858;6.572;2024-01-30T04:25:56;101415.47;;;6.21;100.00
4085;BME280;2057;50.858;6.572;2024-01-30T04:28:21;101413.22;;;6.14;100.00
4085;BME280;2057;50.858;6.572;2024-01-30T04:30:47;101416.13;;;6.08;100.00
4085;BME280;2057;50.858;6.572;2024-01-30T04:33:12;101417.00;;;6.09;100.00
4085;BME280;2057;50.858;6.572;2024-01-30T04:35:37;101419.28;;;6.06;100.00
4085;BME280;2057;50.858;6.572;2024-01-30T04:38:05;101417.28;;;6.02;100.00
4085;BME280;2057;50.858;6.572;2024-01-30T04:40:31;101418.34;;;5.95;100.00
4085;BME280;2057;50.858;6.572;2024-01-30T04:42:58;101405.50;;;5.92;100.00
4085;BME280;2057;50.858;6.572;2024-01-30T04:45:23;101405.28;;;5.99;100.00
4085;BME280;2057;50.858;6.572;2024-01-30T04:47:51;101396.19;;;5.80;100.00
4085;BME280;2057;50.858;6.572;2024-01-30T04:50:17;101397.91;;;5.81;100.00
4085;BME280;2057;50.858;6.572;2024-01-30T04:52:42;101396.31;;;5.82;100.00
4085;BME280;2057;50.858;6.572;2024-01-30T04:55:08;101396.69;;;5.87;100.00
4085;BME280;2057;50.858;6.572;2024-01-30T04:57:36;101394.41;;;5.79;100.00
4085;BME280;2057;50.858;6.572;2024-01-30T05:00:12;101402.06;;;5.71;100.00
4085;BME280;2057;50.858;6.572;2024-01-30T05:02:38;101402.81;;;5.70;100.00
4085;BME280;2057;50.858;6.572;2024-01-30T05:05:06;101410.91;;;5.65;100.00
4085;BME280;2057;50.858;6.572;2024-01-30T05:07:31;101409.13;;;5.64;100.00
4085;BME280;2057;50.858;6.572;2024-01-30T05:09:56;101408.63;;;5.69;100.00
4085;BME280;2057;50.858;6.572;2024-01-30T05:12:22;101406.47;;;5.73;100.00
4085;BME280;2057;50.858;6.572;2024-01-30T05:14:47;101402.06;;;5.71;100.00
4085;BME280;2057;50.858;6.572;2024-01-30T05:17:12;101397.66;;;5.68;100.00
4085;BME280;2057;50.858;6.572;2024-01-30T05:19:38;101399.16;;;5.66;100.00
4085;BME280;2057;50.858;6.572;2024-01-30T05:22:03;101394.28;;;5.68;100.00
4085;BME280;2057;50.858;6.572;2024-01-30T05:24:31;101392.75;;;5.70;100.00
4085;BME280;2057;50.858;6.572;2024-01-30T05:27:00;101395.03;;;5.67;100.00
4085;BME280;2057;50.858;6.572;2024-01-30T05:29:27;101397.28;;;5.63;100.00
4085;BME280;2057;50.858;6.572;2024-01-30T05:31:53;101391.75;;;5.57;100.00
4085;BME280;2057;50.858;6.572;2024-01-30T05:34:18;101397.75;;;5.59;100.00
4085;BME280;2057;50.858;6.572;2024-01-30T05:36:45;101405.97;;;5.67;100.00
4085;BME280;2057;50.858;6.572;2024-01-30T05:39:11;101403.56;;;5.69;100.00
4085;BME280;2057;50.858;6.572;2024-01-30T05:41:36;101399.94;;;5.75;100.00
4085;BME280;2057;50.858;6.572;2024-01-30T05:44:01;101393.50;;;5.79;100.00
4085;BME280;2057;50.858;6.572;2024-01-30T05:46:27;101401.47;;;5.94;100.00
4085;BME280;2057;50.858;6.572;2024-01-30T05:48:54;101391.00;;;5.89;100.00
4085;BME280;2057;50.858;6.572;2024-01-30T05:51:23;101394.59;;;6.02;100.00
4085;BME280;2057;50.858;6.572;2024-01-30T05:53:50;101391.06;;;6.10;100.00
4085;BME280;2057;50.858;6.572;2024-01-30T05:56:16;101387.75;;;6.21;100.00
4085;BME280;2057;50.858;6.572;2024-01-30T05:58:41;101399.09;;;6.26;100.00
4085;BME280;2057;50.858;6.572;2024-01-30T06:01:08;101379.78;;;6.48;100.00
4085;BME280;2057;50.858;6.572;2024-01-30T06:03:41;101378.84;;;6.57;100.00
4085;BME280;2057;50.858;6.572;2024-01-30T06:06:08;101377.84;;;6.55;100.00
4085;BME280;2057;50.858;6.572;2024-01-30T06:08:34;101376.91;;;6.75;100.00
4085;BME280;2057;50.858;6.572;2024-01-30T06:11:01;101373.41;;;6.63;100.00
4085;BME280;2057;50.858;6.572;2024-01-30T06:13:29;101365.94;;;6.65;100.00
4085;BME280;2057;50.858;6.572;2024-01-30T06:15:57;101368.63;;;6.66;100.00
4085;BME280;2057;50.858;6.572;2024-01-30T06:18:22;101368.63;;;6.66;100.00
4085;BME280;2057;50.858;6.572;2024-01-30T06:20:47;101368.16;;;6.50;100.00
4085;BME280;2057;50.858;6.572;2024-01-30T06:23:12;101369.44;;;6.34;100.00
4085;BME280;2057;50.858;6.572;2024-01-30T06:25:40;101368.47;;;6.22;100.00
4085;BME280;2057;50.858;6.572;2024-01-30T06:28:05;101371.59;;;6.30;100.00
4085;BME280;2057;50.858;6.572;2024-01-30T06:30:31;101371.63;;;6.19;100.00
4085;BME280;2057;50.858;6.572;2024-01-30T06:33:01;101368.84;;;6.16;100.00
4085;BME280;2057;50.858;6.572;2024-01-30T06:35:26;101375.28;;;6.12;100.00
4085;BME280;2057;50.858;6.572;2024-01-30T06:37:53;101378.66;;;6.13;100.00
4085;BME280;2057;50.858;6.572;2024-01-30T06:40:23;101365.81;;;6.20;100.00
4085;BME280;2057;50.858;6.572;2024-01-30T06:42:52;101368.59;;;6.13;100.00
4085;BME280;2057;50.858;6.572;2024-01-30T06:45:17;101373.41;;;6.10;100.00
4085;BME280;2057;50.858;6.572;2024-01-30T06:47:42;101371.88;;;6.12;100.00
4085;BME280;2057;50.858;6.572;2024-01-30T06:50:11;101367.59;;;6.01;100.00
4085;BME280;2057;50.858;6.572;2024-01-30T06:52:38;101380.06;;;5.99;100.00
4085;BME280;2057;50.858;6.572;2024-01-30T06:55:04;101376.53;;;5.97;100.00
4085;BME280;2057;50.858;6.572;2024-01-30T06:57:29;101372.13;;;5.84;100.00
4085;BME280;2057;50.858;6.572;2024-01-30T06:59:55;101380.81;;;5.88;100.00
4085;BME280;2057;50.858;6.572;2024-01-30T07:02:23;101378.91;;;5.95;100.00
4085;BME280;2057;50.858;6.572;2024-01-30T07:04:51;101389.28;;;6.09;100.00
4085;BME280;2057;50.858;6.572;2024-01-30T07:07:19;101376.78;;;6.10;100.00
4085;BME280;2057;50.858;6.572;2024-01-30T07:09:44;101382.97;;;6.04;100.00
4085;BME280;2057;50.858;6.572;2024-01-30T07:12:13;101386.59;;;6.07;100.00
4085;BME280;2057;50.858;6.572;2024-01-30T07:14:44;101379.69;;;6.05;100.00
4085;BME280;2057;50.858;6.572;2024-01-30T07:17:11;101383.59;;;6.11;100.00
4085;BME280;2057;50.858;6.572;2024-01-30T07:19:36;101377.66;;;6.21;100.00
4085;BME280;2057;50.858;6.572;2024-01-30T07:22:02;101374.38;;;6.22;100.00
4085;BME280;2057;50.858;6.572;2024-01-30T07:24:42;101376.41;;;6.26;100.00
4085;BME280;2057;50.858;6.572;2024-01-30T07:27:11;101382.47;;;6.28;100.00
4085;BME280;2057;50.858;6.572;2024-01-30T07:29:37;101384.72;;;6.25;100.00
4085;BME280;2057;50.858;6.572;2024-01-30T07:32:07;101382.94;;;6.35;100.00
4085;BME280;2057;50.858;6.572;2024-01-30T07:34:32;101390.88;;;6.39;100.00
4085;BME280;2057;50.858;6.572;2024-01-30T07:36:58;101388.72;;;6.44;100.00
4085;BME280;2057;50.858;6.572;2024-01-30T07:39:23;101392.09;;;6.55;100.00
4085;BME280;2057;50.858;6.572;2024-01-30T07:41:50;101392.50;;;6.49;100.00
4085;BME280;2057;50.858;6.572;2024-01-30T07:44:18;101401.28;;;6.65;100.00
4085;BME280;2057;50.858;6.572;2024-01-30T07:46:46;101398.38;;;6.60;100.00
4085;BME280;2057;50.858;6.572;2024-01-30T07:49:11;101403.03;;;6.66;100.00
4085;BME280;2057;50.858;6.572;2024-01-30T07:51:37;101405.34;;;6.63;100.00
4085;BME280;2057;50.858;6.572;2024-01-30T07:54:02;101415.94;;;6.58;100.00
4085;BME280;2057;50.858;6.572;2024-01-30T08:03:10;101405.53;;;6.76;100.00
4085;BME280;2057;50.858;6.572;2024-01-30T08:05:36;101410.47;;;6.74;100.00
4085;BME280;2057;50.858;6.572;2024-01-30T08:08:01;101414.63;;;6.74;100.00
4085;BME280;2057;50.858;6.572;2024-01-30T08:10:27;101412.50;;;6.68;100.00
4085;BME280;2057;50.858;6.572;2024-01-30T08:12:52;101413.63;;;6.72;100.00
4085;BME280;2057;50.858;6.572;2024-01-30T08:15:17;101415.38;;;6.73;100.00
4085;BME280;2057;50.858;6.572;2024-01-30T08:17:43;101415.28;;;6.71;100.00
4085;BME280;2057;50.858;6.572;2024-01-30T08:20:10;101418.41;;;6.79;100.00
4085;BME280;2057;50.858;6.572;2024-01-30T08:22:38;101421.69;;;6.78;100.00
4085;BME280;2057;50.858;6.572;2024-01-30T08:25:06;101418.03;;;6.85;100.00
4085;BME280;2057;50.858;6.572;2024-01-30T08:27:35;101418.78;;;6.84;100.00
4085;BME280;2057;50.858;6.572;2024-01-30T08:30:04;101411.97;;;6.83;100.00
4085;BME280;2057;50.858;6.572;2024-01-30T08:32:30;101422.44;;;6.87;100.00
4085;BME280;2057;50.858;6.572;2024-01-30T08:34:55;101420.13;;;6.90;100.00
4085;BME280;2057;50.858;6.572;2024-01-30T08:37:20;101422.03;;;6.93;100.00
4085;BME280;2057;50.858;6.572;2024-01-30T08:39:45;101419.09;;;6.99;100.00
4085;BME280;2057;50.858;6.572;2024-01-30T08:42:11;101420.47;;;7.05;100.00
4085;BME280;2057;50.858;6.572;2024-01-30T08:44:36;101419.06;;;7.09;100.00
4085;BME280;2057;50.858;6.572;2024-01-30T08:47:04;101432.28;;;7.17;100.00
4085;BME280;2057;50.858;6.572;2024-01-30T08:49:29;101418.16;;;7.19;100.00
4085;BME280;2057;50.858;6.572;2024-01-30T08:51:55;101429.44;;;7.34;100.00
4085;BME280;2057;50.858;6.572;2024-01-30T08:54:20;101428.78;;;7.37;100.00
4085;BME280;2057;50.858;6.572;2024-01-30T08:56:48;101432.31;;;7.39;100.00
4085;BME280;2057;50.858;6.572;2024-01-30T08:59:23;101428.09;;;7.50;100.00
4085;BME280;2057;50.858;6.572;2024-01-30T09:04:24;101439.06;;;7.50;100.00
4085;BME280;2057;50.858;6.572;2024-01-30T09:09:24;101450.94;;;7.74;100.00
4085;BME280;2057;50.858;6.572;2024-01-30T09:17:03;101464.88;;;7.68;100.00
4085;BME280;2057;50.858;6.572;2024-01-30T09:24:39;101472.09;;;7.86;100.00
4085;BME280;2057;50.858;6.572;2024-01-30T09:27:07;101477.56;;;7.80;100.00
4085;BME280;2057;50.858;6.572;2024-01-30T09:29:33;101479.22;;;7.80;100.00
4085;BME280;2057;50.858;6.572;2024-01-30T09:32:01;101493.94;;;7.85;100.00
4085;BME280;2057;50.858;6.572;2024-01-30T09:34:26;101493.09;;;7.85;100.00
4085;BME280;2057;50.858;6.572;2024-01-30T09:36:54;101504.97;;;7.86;100.00
4085;BME280;2057;50.858;6.572;2024-01-30T09:47:05;101513.47;;;7.98;100.00
4085;BME280;2057;50.858;6.572;2024-01-30T09:49:32;101505.25;;;8.01;100.00
4085;BME280;2057;50.858;6.572;2024-01-30T09:59:45;101506.81;;;8.11;100.00
4085;BME280;2057;50.858;6.572;2024-01-30T10:02:13;101502.97;;;8.16;100.00
4085;BME280;2057;50.858;6.572;2024-01-30T10:07:14;101499.16;;;8.21;100.00
4085;BME280;2057;50.858;6.572;2024-01-30T11:22:06;101497.13;;;9.58;100.00
4085;BME280;2057;50.858;6.572;2024-01-30T11:24:41;101505.84;;;9.62;100.00
4085;BME280;2057;50.858;6.572;2024-01-30T11:27:09;101497.13;;;9.70;100.00
4085;BME280;2057;50.858;6.572;2024-01-30T11:29:39;101486.72;;;9.79;100.00
4085;BME280;2057;50.858;6.572;2024-01-30T11:32:10;101494.66;;;9.83;100.00
4085;BME280;2057;50.858;6.572;2024-01-30T11:34:43;101492.00;;;9.82;100.00
4085;BME280;2057;50.858;6.572;2024-01-30T11:37:09;101483.50;;;9.81;100.00
4085;BME280;2057;50.858;6.572;2024-01-30T11:39:37;101486.47;;;9.87;100.00
4085;BME280;2057;50.858;6.572;2024-01-30T11:42:06;101500.34;;;9.93;100.00
4085;BME280;2057;50.858;6.572;2024-01-30T11:44:33;101501.31;;;10.20;100.00
4085;BME280;2057;50.858;6.572;2024-01-30T11:46:58;101496.63;;;10.38;100.00
4085;BME280;2057;50.858;6.572;2024-01-30T11:49:28;101494.25;;;10.80;100.00
4085;BME280;2057;50.858;6.572;2024-01-30T11:51:59;101487.81;;;10.85;100.00
4085;BME280;2057;50.858;6.572;2024-01-30T11:54:24;101483.50;;;10.84;100.00
4085;BME280;2057;50.858;6.572;2024-01-30T11:56:49;101484.09;;;10.93;100.00
4085;BME280;2057;50.858;6.572;2024-01-30T11:59:15;101492.09;;;10.99;100.00
4085;BME280;2057;50.858;6.572;2024-01-30T12:01:42;101491.63;;;11.05;100.00
4085;BME280;2057;50.858;6.572;2024-01-30T12:04:10;101496.97;;;11.23;100.00
4085;BME280;2057;50.858;6.572;2024-01-30T12:06:39;101488.16;;;11.32;100.00
4085;BME280;2057;50.858;6.572;2024-01-30T12:09:04;101495.00;;;11.33;100.00
4085;BME280;2057;50.858;6.572;2024-01-30T12:11:43;101489.75;;;11.29;100.00
4085;BME280;2057;50.858;6.572;2024-01-30T12:14:09;101484.66;;;11.29;100.00
4085;BME280;2057;50.858;6.572;2024-01-30T12:16:36;101493.44;;;11.35;100.00
4085;BME280;2057;50.858;6.572;2024-01-30T12:19:02;101492.75;;;11.37;100.00
4085;BME280;2057;50.858;6.572;2024-01-30T12:21:28;101494.88;;;11.44;100.00
4085;BME280;2057;50.858;6.572;2024-01-30T12:23:57;101499.59;;;11.52;100.00
4085;BME280;2057;50.858;6.572;2024-01-30T12:26:24;101499.47;;;11.50;100.00
4085;BME280;2057;50.858;6.572;2024-01-30T12:28:56;101495.66;;;11.57;100.00
4085;BME280;2057;50.858;6.572;2024-01-30T12:31:42;101494.38;;;11.50;100.00
4085;BME280;2057;50.858;6.572;2024-01-30T12:34:13;101494.56;;;11.53;100.00
4085;BME280;2057;50.858;6.572;2024-01-30T12:36:39;101499.09;;;11.57;100.00
4085;BME280;2057;50.858;6.572;2024-01-30T12:39:11;101492.13;;;11.55;100.00
4085;BME280;2057;50.858;6.572;2024-01-30T12:41:36;101495.66;;;11.57;100.00
4085;BME280;2057;50.858;6.572;2024-01-30T12:44:04;101504.94;;;11.56;100.00
4085;BME280;2057;50.858;6.572;2024-01-30T12:46:36;101503.19;;;11.55;100.00
4085;BME280;2057;50.858;6.572;2024-01-30T12:49:06;101505.03;;;11.58;100.00
4085;BME280;2057;50.858;6.572;2024-01-30T12:51:40;101512.34;;;11.67;100.00
4085;BME280;2057;50.858;6.572;2024-01-30T12:54:08;101509.84;;;11.53;100.00
4085;BME280;2057;50.858;6.572;2024-01-30T12:56:33;101513.84;;;11.50;100.00
4085;BME280;2057;50.858;6.572;2024-01-30T12:58:59;101497.19;;;11.55;100.00
4085;BME280;2057;50.858;6.572;2024-01-30T13:01:24;101514.34;;;11.44;100.00
4085;BME280;2057;50.858;6.572;2024-01-30T13:03:52;101503.69;;;11.50;100.00
4085;BME280;2057;50.858;6.572;2024-01-30T13:06:17;101508.69;;;11.48;100.00
4085;BME280;2057;50.858;6.572;2024-01-30T13:08:49;101513.78;;;11.48;100.00
4085;BME280;2057;50.858;6.572;2024-01-30T13:11:14;101511.53;;;11.39;100.00
4085;BME280;2057;50.858;6.572;2024-01-30T13:13:47;101508.00;;;11.37;100.00
4085;BME280;2057;50.858;6.572;2024-01-30T13:16:14;101513.38;;;11.42;100.00
4085;BME280;2057;50.858;6.572;2024-01-30T13:18:40;101513.38;;;11.42;100.00
4085;BME280;2057;50.858;6.572;2024-01-30T13:21:08;101522.59;;;11.40;100.00
4085;BME280;2057;50.858;6.572;2024-01-30T13:23:36;101524.31;;;11.41;100.00
4085;BME280;2057;50.858;6.572;2024-01-30T13:26:01;101526.50;;;11.48;100.00
4085;BME280;2057;50.858;6.572;2024-01-30T13:28:27;101526.88;;;11.41;100.00
4085;BME280;2057;50.858;6.572;2024-01-30T13:30:52;101540.41;;;11.40;100.00
4085;BME280;2057;50.858;6.572;2024-01-30T13:33:18;101534.41;;;11.39;100.00
4085;BME280;2057;50.858;6.572;2024-01-30T13:35:43;101541.75;;;11.35;100.00
4085;BME280;2057;50.858;6.572;2024-01-30T13:38:11;101539.81;;;11.30;100.00
4085;BME280;2057;50.858;6.572;2024-01-30T13:40:39;101539.53;;;11.26;100.00
4085;BME280;2057;50.858;6.572;2024-01-30T13:45:41;101544.19;;;11.20;100.00
4085;BME280;2057;50.858;6.572;2024-01-30T13:55:53;101552.91;;;11.10;100.00
4085;BME280;2057;50.858;6.572;2024-01-30T13:58:20;101553.47;;;11.06;100.00
4085;BME280;2057;50.858;6.572;2024-01-30T14:11:04;101556.53;;;11.00;100.00
4085;BME280;2057;50.858;6.572;2024-01-30T14:34:01;101558.94;;;10.98;100.00
4085;BME280;2057;50.858;6.572;2024-01-30T14:46:47;101558.00;;;10.96;100.00
4085;BME280;2057;50.858;6.572;2024-01-30T16:01:37;101685.13;;;9.75;100.00
4085;BME280;2057;50.858;6.572;2024-01-30T16:04:02;101685.88;;;9.73;100.00
4085;BME280;2057;50.858;6.572;2024-01-30T16:06:28;101691.63;;;9.83;100.00
4085;BME280;2057;50.858;6.572;2024-01-30T16:08:53;101695.03;;;9.71;100.00
4085;BME280;2057;50.858;6.572;2024-01-30T16:11:20;101686.84;;;9.64;100.00
4085;BME280;2057;50.858;6.572;2024-01-30T16:13:46;101693.81;;;9.66;100.00
4085;BME280;2057;50.858;6.572;2024-01-30T16:16:21;101695.47;;;9.66;100.00
4085;BME280;2057;50.858;6.572;2024-01-30T16:18:49;101711.09;;;9.60;100.00
4085;BME280;2057;50.858;6.572;2024-01-30T16:21:14;101699.09;;;9.69;100.00
4085;BME280;2057;50.858;6.572;2024-01-30T16:23:41;101711.56;;;9.66;100.00
4085;BME280;2057;50.858;6.572;2024-01-30T16:26:07;101721.03;;;9.57;100.00
4085;BME280;2057;50.858;6.572;2024-01-30T16:28:32;101727.75;;;9.56;100.00
4085;BME280;2057;50.858;6.572;2024-01-30T16:31:02;101722.00;;;9.59;100.00
4085;BME280;2057;50.858;6.572;2024-01-30T16:33:29;101734.16;;;9.51;100.00
4085;BME280;2057;50.858;6.572;2024-01-30T16:35:57;101733.03;;;9.48;100.00
4085;BME280;2057;50.858;6.572;2024-01-30T16:38:22;101728.06;;;9.49;100.00
4085;BME280;2057;50.858;6.572;2024-01-30T16:40:47;101740.66;;;9.48;100.00
4085;BME280;2057;50.858;6.572;2024-01-30T16:43:16;101743.41;;;9.51;100.00
4085;BME280;2057;50.858;6.572;2024-01-30T16:45:44;101750.56;;;9.45;100.00
4085;BME280;2057;50.858;6.572;2024-01-30T16:48:13;101752.66;;;9.50;100.00
4085;BME280;2057;50.858;6.572;2024-01-30T16:50:42;101743.41;;;9.51;100.00
4085;BME280;2057;50.858;6.572;2024-01-30T16:53:10;101755.63;;;9.45;100.00
4085;BME280;2057;50.858;6.572;2024-01-30T16:55:35;101755.03;;;9.37;100.00
4085;BME280;2057;50.858;6.572;2024-01-30T16:58:00;101766.09;;;9.37;100.00
4085;BME280;2057;50.858;6.572;2024-01-30T17:00:26;101775.56;;;9.40;100.00
4085;BME280;2057;50.858;6.572;2024-01-30T17:02:51;101765.84;;;9.34;100.00
4085;BME280;2057;50.858;6.572;2024-01-30T17:05:19;101773.75;;;9.27;100.00
4085;BME280;2057;50.858;6.572;2024-01-30T17:07:44;101775.53;;;9.28;100.00
4085;BME280;2057;50.858;6.572;2024-01-30T17:10:10;101783.91;;;9.27;100.00
4085;BME280;2057;50.858;6.572;2024-01-30T17:12:35;101786.66;;;9.30;100.00
4085;BME280;2057;50.858;6.572;2024-01-30T17:15:03;101793.16;;;9.26;100.00
4085;BME280;2057;50.858;6.572;2024-01-30T17:17:28;101793.78;;;9.24;100.00
4085;BME280;2057;50.858;6.572;2024-01-30T17:19:54;101793.78;;;9.24;100.00
4085;BME280;2057;50.858;6.572;2024-01-30T17:22:19;101806.34;;;9.22;100.00
4085;BME280;2057;50.858;6.572;2024-01-30T17:24:50;101811.66;;;9.25;100.00
4085;BME280;2057;50.858;6.572;2024-01-30T17:27:16;101817.16;;;9.20;100.00
4085;BME280;2057;50.858;6.572;2024-01-30T17:29:43;101819.94;;;9.23;100.00
4085;BME280;2057;50.858;6.572;2024-01-30T17:32:09;101822.38;;;9.11;100.00
4085;BME280;2057;50.858;6.572;2024-01-30T17:34:36;101829.72;;;9.18;100.00
4085;BME280;2057;50.858;6.572;2024-01-30T17:42:12;101828.25;;;9.10;100.00
4085;BME280;2057;50.858;6.572;2024-01-30T17:47:13;101835.47;;;9.05;100.00
4085;BME280;2057;50.858;6.572;2024-01-30T17:49:38;101828.25;;;9.10;100.00
4085;BME280;2057;50.858;6.572;2024-01-30T17:54:41;101846.59;;;9.07;100.00
4085;BME280;2057;50.858;6.572;2024-01-30T17:57:06;101858.28;;;9.05;100.00
4085;BME280;2057;50.858;6.572;2024-01-30T17:59:31;101860.63;;;8.92;100.00
4085;BME280;2057;50.858;6.572;2024-01-30T18:01:57;101867.44;;;8.93;100.00
4085;BME280;2057;50.858;6.572;2024-01-30T18:04:24;101858.69;;;9.00;100.00
4085;BME280;2057;50.858;6.572;2024-01-30T18:06:54;101864.03;;;8.92;100.00
4085;BME280;2057;50.858;6.572;2024-01-30T18:09:24;101872.28;;;8.90;100.00
4085;BME280;2057;50.858;6.572;2024-01-30T18:19:45;101880.13;;;8.93;100.00
4085;BME280;2057;50.858;6.572;2024-01-30T18:22:10;101878.09;;;8.89;100.00
4085;BME280;2057;50.858;6.572;2024-01-30T18:24:35;101881.06;;;8.83;100.00
4085;BME280;2057;50.858;6.572;2024-01-30T18:27:06;101885.41;;;8.74;100.00
4085;BME280;2057;50.858;6.572;2024-01-30T18:29:32;101888.28;;;8.78;100.00
4085;BME280;2057;50.858;6.572;2024-01-30T18:34:31;101890.09;;;8.69;100.00
4085;BME280;2057;50.858;6.572;2024-01-30T18:36:56;101880.25;;;8.62;100.00